sensor_id;sensor_type;location;lat;lon;timestamp;pressure;altitude;pressure_sealevel;temperature;humidity
4576;BME280;2300;51.874;8.430;2023-03-13T00:00:22;99690.94;;;9.10;83.23
4576;BME280;2300;51.874;8.430;2023-03-13T00:02:48;99690.72;;;9.11;82.97
4576;BME280;2300;51.874;8.430;2023-03-13T00:05:15;99678.66;;;9.12;83.09
4576;BME280;2300;51.874;8.430;2023-03-13T00:07:42;99669.63;;;9.12;82.72
4576;BME280;2300;51.874;8.430;2023-03-13T00:10:09;99663.31;;;9.11;83.00
4576;BME280;2300;51.874;8.430;2023-03-13T00:12:35;99660.31;;;9.13;82.62
4576;BME280;2300;51.874;8.430;2023-03-13T00:15:02;99661.66;;;9.10;82.95
4576;BME280;2300;51.874;8.430;2023-03-13T00:17:30;99654.34;;;8.99;82.53
4576;BME280;2300;51.874;8.430;2023-03-13T00:19:57;99643.97;;;9.01;82.95
4576;BME280;2300;51.874;8.430;2023-03-13T00:22:24;99633.09;;;9.06;82.07
4576;BME280;2300;51.874;8.430;2023-03-13T00:24:50;99631.34;;;9.00;83.38
4576;BME280;2300;51.874;8.430;2023-03-13T00:27:16;99629.94;;;8.98;83.28
4576;BME280;2300;51.874;8.430;2023-03-13T00:29:43;99622.78;;;8.97;83.21
4576;BME280;2300;51.874;8.430;2023-03-13T00:32:09;99610.59;;;8.88;83.57
4576;BME280;2300;51.874;8.430;2023-03-13T00:34:37;99622.41;;;9.05;82.83
4576;BME280;2300;51.874;8.430;2023-03-13T00:37:04;99615.75;;;9.01;82.48
4576;BME280;2300;51.874;8.430;2023-03-13T00:39:30;99615.75;;;9.01;83.14
4576;BME280;2300;51.874;8.430;2023-03-13T00:41:57;99614.25;;;8.93;83.19
4576;BME280;2300;51.874;8.430;2023-03-13T00:44:24;99608.84;;;8.98;82.69
4576;BME280;2300;51.874;8.430;2023-03-13T00:46:50;99607.63;;;9.06;82.95
4576;BME280;2300;51.874;8.430;2023-03-13T00:49:17;99594.41;;;9.03;83.40
4576;BME280;2300;51.874;8.430;2023-03-13T00:51:45;99594.25;;;9.09;82.63
4576;BME280;2300;51.874;8.430;2023-03-13T00:54:11;99593.44;;;9.09;82.88
4576;BME280;2300;51.874;8.430;2023-03-13T00:56:37;99584.97;;;9.10;83.20
4576;BME280;2300;51.874;8.430;2023-03-13T00:59:04;99587.94;;;9.09;83.00
4576;BME280;2300;51.874;8.430;2023-03-13T01:01:31;99584.72;;;9.12;82.91
4576;BME280;2300;51.874;8.430;2023-03-13T01:04:00;99576.50;;;9.12;82.77
4576;BME280;2300;51.874;8.430;2023-03-13T01:06:28;99577.66;;;9.16;82.62
4576;BME280;2300;51.874;8.430;2023-03-13T01:08:56;99572.94;;;9.11;82.93
4576;BME280;2300;51.874;8.430;2023-03-13T01:11:25;99564.28;;;9.20;82.83
4576;BME280;2300;51.874;8.430;2023-03-13T01:13:53;99564.28;;;9.20;83.39
4576;BME280;2300;51.874;8.430;2023-03-13T01:16:21;99554.69;;;9.17;83.04
4576;BME280;2300;51.874;8.430;2023-03-13T01:18:50;99556.41;;;9.23;82.96
4576;BME280;2300;51.874;8.430;2023-03-13T01:21:18;99541.00;;;9.17;82.85
4576;BME280;2300;51.874;8.430;2023-03-13T01:23:45;99547.69;;;9.26;83.37
4576;BME280;2300;51.874;8.430;2023-03-13T01:26:13;99537.81;;;9.25;83.28
4576;BME280;2300;51.874;8.430;2023-03-13T01:28:40;99531.81;;;9.28;83.17
4576;BME280;2300;51.874;8.430;2023-03-13T01:31:10;99524.56;;;9.39;83.13
4576;BME280;2300;51.874;8.430;2023-03-13T01:33:37;99523.19;;;9.36;83.59
4576;BME280;2300;51.874;8.430;2023-03-13T01:36:04;99511.09;;;9.32;84.20
4576;BME280;2300;51.874;8.430;2023-03-13T01:38:31;99503.34;;;9.29;84.56
4576;BME280;2300;51.874;8.430;2023-03-13T01:40:57;99502.94;;;9.37;85.24
4576;BME280;2300;51.874;8.430;2023-03-13T01:43:27;99502.28;;;9.30;85.23
4576;BME280;2300;51.874;8.430;2023-03-13T01:45:58;99502.50;;;9.29;85.88
4576;BME280;2300;51.874;8.430;2023-03-13T01:48:30;99495.38;;;9.28;86.35
4576;BME280;2300;51.874;8.430;2023-03-13T01:51:00;99486.53;;;9.21;87.33
4576;BME280;2300;51.874;8.430;2023-03-13T01:53:29;99479.06;;;9.16;87.88
4576;BME280;2300;51.874;8.430;2023-03-13T01:55:58;99462.50;;;9.06;88.25
4576;BME280;2300;51.874;8.430;2023-03-13T01:58:28;99460.59;;;9.06;89.73
4576;BME280;2300;51.874;8.430;2023-03-13T02:00:55;99457.09;;;9.11;90.18
4576;BME280;2300;51.874;8.430;2023-03-13T02:03:23;99445.41;;;8.99;91.57
4576;BME280;2300;51.874;8.430;2023-03-13T02:05:52;99436.53;;;8.92;92.30
4576;BME280;2300;51.874;8.430;2023-03-13T02:08:21;99420.69;;;8.94;92.42
4576;BME280;2300;51.874;8.430;2023-03-13T02:10:52;99420.69;;;8.94;92.89
4576;BME280;2300;51.874;8.430;2023-03-13T02:13:19;99392.03;;;8.80;93.34
4576;BME280;2300;51.874;8.430;2023-03-13T02:15:48;99400.94;;;8.92;93.38
4576;BME280;2300;51.874;8.430;2023-03-13T02:18:14;99393.06;;;8.95;94.38
4576;BME280;2300;51.874;8.430;2023-03-13T02:20:41;99384.34;;;8.98;93.80
4576;BME280;2300;51.874;8.430;2023-03-13T02:23:13;99366.69;;;8.89;94.60
4576;BME280;2300;51.874;8.430;2023-03-13T02:25:43;99359.94;;;8.97;94.46
4576;BME280;2300;51.874;8.430;2023-03-13T02:28:13;99359.13;;;8.96;95.06
4576;BME280;2300;51.874;8.430;2023-03-13T02:30:42;99353.72;;;9.01;94.69
4576;BME280;2300;51.874;8.430;2023-03-13T02:33:10;99347.44;;;9.01;94.81
4576;BME280;2300;51.874;8.430;2023-03-13T02:35:38;99336.41;;;8.96;94.54
4576;BME280;2300;51.874;8.430;2023-03-13T02:38:07;99337.03;;;9.03;95.67
4576;BME280;2300;51.874;8.430;2023-03-13T02:40:37;99328.38;;;9.11;95.53
4576;BME280;2300;51.874;8.430;2023-03-13T02:43:11;99321.81;;;9.12;94.53
4576;BME280;2300;51.874;8.430;2023-03-13T02:45:39;99314.63;;;9.06;94.75
4576;BME280;2300;51.874;8.430;2023-03-13T02:48:06;99305.66;;;9.10;95.40
4576;BME280;2300;51.874;8.430;2023-03-13T02:50:32;99294.44;;;9.12;95.19
4576;BME280;2300;51.874;8.430;2023-03-13T02:53:03;99299.81;;;9.07;95.50
4576;BME280;2300;51.874;8.430;2023-03-13T02:55:34;99280.34;;;9.03;95.92
4576;BME280;2300;51.874;8.430;2023-03-13T02:58:03;99274.06;;;9.03;96.83
4576;BME280;2300;51.874;8.430;2023-03-13T03:00:31;99268.56;;;9.03;97.23
4576;BME280;2300;51.874;8.430;2023-03-13T03:02:57;99266.78;;;8.92;98.29
4576;BME280;2300;51.874;8.430;2023-03-13T03:05:23;99263.81;;;8.93;99.75
4576;BME280;2300;51.874;8.430;2023-03-13T03:07:50;99255.47;;;8.83;100.00
4576;BME280;2300;51.874;8.430;2023-03-13T03:10:17;99265.59;;;8.83;100.00
4576;BME280;2300;51.874;8.430;2023-03-13T03:12:44;99255.66;;;8.77;100.00
4576;BME280;2300;51.874;8.430;2023-03-13T03:15:11;99251.38;;;8.64;100.00
4576;BME280;2300;51.874;8.430;2023-03-13T03:17:39;99247.00;;;8.63;100.00
4576;BME280;2300;51.874;8.430;2023-03-13T03:20:06;99235.16;;;8.57;100.00
4576;BME280;2300;51.874;8.430;2023-03-13T03:22:36;99213.53;;;8.34;100.00
4576;BME280;2300;51.874;8.430;2023-03-13T03:25:03;99215.28;;;8.45;100.00
4576;BME280;2300;51.874;8.430;2023-03-13T03:27:30;99215.88;;;8.47;100.00
4576;BME280;2300;51.874;8.430;2023-03-13T03:29:57;99221.09;;;8.49;100.00
4576;BME280;2300;51.874;8.430;2023-03-13T03:32:23;99208.81;;;8.51;100.00
4576;BME280;2300;51.874;8.430;2023-03-13T03:34:51;99209.44;;;8.58;100.00
4576;BME280;2300;51.874;8.430;2023-03-13T03:37:17;99209.38;;;8.53;100.00
4576;BME280;2300;51.874;8.430;2023-03-13T03:39:44;99214.41;;;8.61;100.00
4576;BME280;2300;51.874;8.430;2023-03-13T03:42:10;99205.13;;;8.62;100.00
4576;BME280;2300;51.874;8.430;2023-03-13T03:44:37;99207.56;;;8.81;100.00
4576;BME280;2300;51.874;8.430;2023-03-13T03:47:03;99207.75;;;8.74;100.00
4576;BME280;2300;51.874;8.430;2023-03-13T03:49:30;99201.31;;;8.85;100.00
4576;BME280;2300;51.874;8.430;2023-03-13T03:51:57;99191.75;;;8.88;100.00
4576;BME280;2300;51.874;8.430;2023-03-13T03:54:24;99184.13;;;8.90;100.00
4576;BME280;2300;51.874;8.430;2023-03-13T03:56:50;99185.44;;;8.87;100.00
4576;BME280;2300;51.874;8.430;2023-03-13T03:59:17;99192.63;;;8.93;100.00
4576;BME280;2300;51.874;8.430;2023-03-13T04:01:43;99172.97;;;8.96;100.00
4576;BME280;2300;51.874;8.430;2023-03-13T04:04:10;99168.94;;;9.04;100.00
4576;BME280;2300;51.874;8.430;2023-03-13T04:06:36;99164.59;;;9.08;100.00
4576;BME280;2300;51.874;8.430;2023-03-13T04:09:04;99168.88;;;8.99;100.00
4576;BME280;2300;51.874;8.430;2023-03-13T04:11:30;99164.09;;;9.11;100.00
4576;BME280;2300;51.874;8.430;2023-03-13T04:13:57;99164.09;;;9.11;100.00
4576;BME280;2300;51.874;8.430;2023-03-13T04:16:23;99137.03;;;9.20;100.00
4576;BME280;2300;51.874;8.430;2023-03-13T04:18:50;99140.13;;;9.28;100.00
4576;BME280;2300;51.874;8.430;2023-03-13T04:21:16;99138.00;;;9.35;100.00
4576;BME280;2300;51.874;8.430;2023-03-13T04:23:43;99139.91;;;9.35;100.00
4576;BME280;2300;51.874;8.430;2023-03-13T04:26:10;99150.66;;;9.41;100.00
4576;BME280;2300;51.874;8.430;2023-03-13T04:28:37;99148.94;;;9.35;100.00
4576;BME280;2300;51.874;8.430;2023-03-13T04:31:04;99142.44;;;9.41;100.00
4576;BME280;2300;51.874;8.430;2023-03-13T04:33:30;99131.97;;;9.38;100.00
4576;BME280;2300;51.874;8.430;2023-03-13T04:35:57;99127.91;;;9.41;100.00
4576;BME280;2300;51.874;8.430;2023-03-13T04:38:23;99130.97;;;9.49;100.00
4576;BME280;2300;51.874;8.430;2023-03-13T04:40:49;99122.25;;;9.52;100.00
4576;BME280;2300;51.874;8.430;2023-03-13T04:43:17;99126.38;;;9.55;100.00
4576;BME280;2300;51.874;8.430;2023-03-13T04:45:46;99125.03;;;9.57;100.00
4576;BME280;2300;51.874;8.430;2023-03-13T04:48:14;99123.41;;;9.62;100.00
4576;BME280;2300;51.874;8.430;2023-03-13T04:50:40;99125.31;;;9.61;100.00
4576;BME280;2300;51.874;8.430;2023-03-13T04:53:07;99128.09;;;9.66;100.00
4576;BME280;2300;51.874;8.430;2023-03-13T04:55:33;99124.56;;;9.71;100.00
4576;BME280;2300;51.874;8.430;2023-03-13T04:57:59;99114.94;;;9.63;100.00
4576;BME280;2300;51.874;8.430;2023-03-13T05:00:27;99117.13;;;9.66;100.00
4576;BME280;2300;51.874;8.430;2023-03-13T05:02:54;99105.59;;;9.64;100.00
4576;BME280;2300;51.874;8.430;2023-03-13T05:05:20;99098.75;;;9.62;100.00
4576;BME280;2300;51.874;8.430;2023-03-13T05:07:46;99086.72;;;9.68;100.00
4576;BME280;2300;51.874;8.430;2023-03-13T05:10:13;99088.38;;;9.69;100.00
4576;BME280;2300;51.874;8.430;2023-03-13T05:12:39;99085.34;;;9.70;100.00
4576;BME280;2300;51.874;8.430;2023-03-13T05:15:07;99090.06;;;9.80;100.00
4576;BME280;2300;51.874;8.430;2023-03-13T05:17:35;99083.53;;;9.86;100.00
4576;BME280;2300;51.874;8.430;2023-03-13T05:20:02;99074.81;;;9.94;100.00
4576;BME280;2300;51.874;8.430;2023-03-13T05:22:32;99084.16;;;10.03;100.00
4576;BME280;2300;51.874;8.430;2023-03-13T05:24:58;99081.44;;;10.08;100.00
4576;BME280;2300;51.874;8.430;2023-03-13T05:27:24;99077.06;;;10.07;100.00
4576;BME280;2300;51.874;8.430;2023-03-13T05:29:51;99071.63;;;10.22;100.00
4576;BME280;2300;51.874;8.430;2023-03-13T05:32:17;99071.69;;;10.32;100.00
4576;BME280;2300;51.874;8.430;2023-03-13T05:34:45;99064.03;;;10.34;100.00
4576;BME280;2300;51.874;8.430;2023-03-13T05:37:11;99047.56;;;10.34;100.00
4576;BME280;2300;51.874;8.430;2023-03-13T05:39:38;99056.34;;;10.36;100.00
4576;BME280;2300;51.874;8.430;2023-03-13T05:42:05;99051.16;;;10.40;100.00
4576;BME280;2300;51.874;8.430;2023-03-13T05:44:31;99053.91;;;10.45;100.00
4576;BME280;2300;51.874;8.430;2023-03-13T05:46:58;99054.44;;;10.47;100.00
4576;BME280;2300;51.874;8.430;2023-03-13T05:49:24;99058.84;;;10.48;100.00
4576;BME280;2300;51.874;8.430;2023-03-13T05:51:52;99048.72;;;10.59;100.00
4576;BME280;2300;51.874;8.430;2023-03-13T05:54:18;99054.22;;;10.69;100.00
4576;BME280;2300;51.874;8.430;2023-03-13T05:56:45;99053.13;;;10.75;100.00
4576;BME280;2300;51.874;8.430;2023-03-13T05:59:13;99050.94;;;10.62;100.00
4576;BME280;2300;51.874;8.430;2023-03-13T06:01:39;99047.06;;;10.63;100.00
4576;BME280;2300;51.874;8.430;2023-03-13T06:04:06;99024.25;;;10.42;100.00
4576;BME280;2300;51.874;8.430;2023-03-13T06:06:32;99032.81;;;10.66;100.00
4576;BME280;2300;51.874;8.430;2023-03-13T06:09:00;99052.56;;;10.63;100.00
4576;BME280;2300;51.874;8.430;2023-03-13T06:11:26;99041.59;;;10.68;100.00
4576;BME280;2300;51.874;8.430;2023-03-13T06:13:53;99045.47;;;10.77;100.00
4576;BME280;2300;51.874;8.430;2023-03-13T06:16:19;99043.53;;;10.72;100.00
4576;BME280;2300;51.874;8.430;2023-03-13T06:18:46;99043.25;;;10.74;100.00
4576;BME280;2300;51.874;8.430;2023-03-13T06:21:12;99015.25;;;10.62;100.00
4576;BME280;2300;51.874;8.430;2023-03-13T06:23:39;99049.03;;;10.82;100.00
4576;BME280;2300;51.874;8.430;2023-03-13T06:26:07;99051.50;;;10.84;100.00
4576;BME280;2300;51.874;8.430;2023-03-13T06:28:34;99045.47;;;10.77;100.00
4576;BME280;2300;51.874;8.430;2023-03-13T06:31:01;99050.66;;;10.89;100.00
4576;BME280;2300;51.874;8.430;2023-03-13T06:33:27;99057.28;;;10.88;100.00
4576;BME280;2300;51.874;8.430;2023-03-13T06:35:55;99052.06;;;10.91;100.00
4576;BME280;2300;51.874;8.430;2023-03-13T06:38:22;99061.38;;;10.95;100.00
4576;BME280;2300;51.874;8.430;2023-03-13T06:40:48;99048.22;;;10.92;100.00
4576;BME280;2300;51.874;8.430;2023-03-13T06:43:16;99044.91;;;10.90;100.00
4576;BME280;2300;51.874;8.430;2023-03-13T06:45:42;99044.91;;;10.90;100.00
4576;BME280;2300;51.874;8.430;2023-03-13T06:48:09;99049.31;;;10.96;100.00
4576;BME280;2300;51.874;8.430;2023-03-13T06:50:37;99053.97;;;11.01;100.00
4576;BME280;2300;51.874;8.430;2023-03-13T06:53:03;99047.13;;;10.93;100.00
4576;BME280;2300;51.874;8.430;2023-03-13T06:55:30;99055.88;;;10.90;100.00
4576;BME280;2300;51.874;8.430;2023-03-13T06:57:56;99064.69;;;10.92;100.00
4576;BME280;2300;51.874;8.430;2023-03-13T07:00:25;99060.28;;;10.96;100.00
4576;BME280;2300;51.874;8.430;2023-03-13T07:02:51;99053.72;;;10.92;100.00
4576;BME280;2300;51.874;8.430;2023-03-13T07:05:18;99050.66;;;10.94;100.00
4576;BME280;2300;51.874;8.430;2023-03-13T07:07:44;99060.03;;;10.93;100.00
4576;BME280;2300;51.874;8.430;2023-03-13T07:10:10;99050.66;;;10.94;100.00
4576;BME280;2300;51.874;8.430;2023-03-13T07:12:37;99053.16;;;10.95;100.00
4576;BME280;2300;51.874;8.430;2023-03-13T07:15:05;99049.03;;;11.03;100.00
4576;BME280;2300;51.874;8.430;2023-03-13T07:17:33;99049.03;;;11.03;100.00
4576;BME280;2300;51.874;8.430;2023-03-13T07:20:00;99059.72;;;11.14;100.00
4576;BME280;2300;51.874;8.430;2023-03-13T07:22:26;99066.34;;;11.13;100.00
4576;BME280;2300;51.874;8.430;2023-03-13T07:24:53;99055.63;;;11.17;100.00
4576;BME280;2300;51.874;8.430;2023-03-13T07:27:19;99055.88;;;11.20;100.00
4576;BME280;2300;51.874;8.430;2023-03-13T07:29:46;99044.06;;;11.15;100.00
4576;BME280;2300;51.874;8.430;2023-03-13T07:32:13;99055.88;;;11.25;100.00
4576;BME280;2300;51.874;8.430;2023-03-13T07:34:41;99052.31;;;11.35;100.00
4576;BME280;2300;51.874;8.430;2023-03-13T07:37:08;99059.44;;;11.41;100.00
4576;BME280;2300;51.874;8.430;2023-03-13T07:39:35;99061.91;;;11.48;100.00
4576;BME280;2300;51.874;8.430;2023-03-13T07:42:01;99042.69;;;11.38;100.00
4576;BME280;2300;51.874;8.430;2023-03-13T07:44:28;99052.81;;;11.57;100.00
4576;BME280;2300;51.874;8.430;2023-03-13T07:46:58;99054.22;;;11.70;99.89
4576;BME280;2300;51.874;8.430;2023-03-13T07:49:24;99042.09;;;11.66;99.14
4576;BME280;2300;51.874;8.430;2023-03-13T07:51:52;99039.34;;;11.81;98.64
4576;BME280;2300;51.874;8.430;2023-03-13T07:54:18;99054.69;;;11.87;97.88
4576;BME280;2300;51.874;8.430;2023-03-13T07:56:45;99038.50;;;11.86;97.66
4576;BME280;2300;51.874;8.430;2023-03-13T07:59:11;99036.00;;;11.89;97.52
4576;BME280;2300;51.874;8.430;2023-03-13T08:01:38;99032.69;;;11.87;96.76
4576;BME280;2300;51.874;8.430;2023-03-13T08:04:04;99032.41;;;11.94;96.87
4576;BME280;2300;51.874;8.430;2023-03-13T08:06:32;99041.47;;;11.99;96.59
4576;BME280;2300;51.874;8.430;2023-03-13T08:09:01;99022.78;;;12.01;96.30
4576;BME280;2300;51.874;8.430;2023-03-13T08:11:27;99030.66;;;12.13;95.88
4576;BME280;2300;51.874;8.430;2023-03-13T08:13:55;99017.22;;;12.11;95.77
4576;BME280;2300;51.874;8.430;2023-03-13T08:16:23;99005.94;;;12.08;95.61
4576;BME280;2300;51.874;8.430;2023-03-13T08:18:51;99011.13;;;12.15;95.08
4576;BME280;2300;51.874;8.430;2023-03-13T08:21:19;99002.03;;;12.19;94.97
4576;BME280;2300;51.874;8.430;2023-03-13T08:23:46;99009.72;;;12.27;94.94
4576;BME280;2300;51.874;8.430;2023-03-13T08:26:15;99002.75;;;12.40;93.55
4576;BME280;2300;51.874;8.430;2023-03-13T08:28:44;98999.41;;;12.48;93.23
4576;BME280;2300;51.874;8.430;2023-03-13T08:31:12;98993.31;;;12.51;93.14
4576;BME280;2300;51.874;8.430;2023-03-13T08:33:39;98999.81;;;12.65;92.29
4576;BME280;2300;51.874;8.430;2023-03-13T08:36:14;99002.88;;;12.64;91.45
4576;BME280;2300;51.874;8.430;2023-03-13T08:38:42;98998.69;;;12.71;91.75
4576;BME280;2300;51.874;8.430;2023-03-13T08:41:09;99004.22;;;12.66;91.70
4576;BME280;2300;51.874;8.430;2023-03-13T08:43:37;98997.84;;;12.71;91.37
4576;BME280;2300;51.874;8.430;2023-03-13T08:46:03;98998.13;;;12.74;90.96
4576;BME280;2300;51.874;8.430;2023-03-13T08:48:30;98998.69;;;12.71;90.61
4576;BME280;2300;51.874;8.430;2023-03-13T08:51:01;98993.16;;;12.71;90.93
4576;BME280;2300;51.874;8.430;2023-03-13T08:53:27;99006.59;;;12.83;90.24
4576;BME280;2300;51.874;8.430;2023-03-13T08:55:54;98979.31;;;12.86;90.17
4576;BME280;2300;51.874;8.430;2023-03-13T08:58:20;98988.66;;;12.85;90.03
4576;BME280;2300;51.874;8.430;2023-03-13T09:00:49;98982.06;;;12.81;89.67
4576;BME280;2300;51.874;8.430;2023-03-13T09:03:15;98985.63;;;12.87;89.67
4576;BME280;2300;51.874;8.430;2023-03-13T09:05:42;98986.47;;;12.87;89.43
4576;BME280;2300;51.874;8.430;2023-03-13T09:08:10;98965.03;;;12.79;88.84
4576;BME280;2300;51.874;8.430;2023-03-13T09:10:36;98977.00;;;12.99;88.41
4576;BME280;2300;51.874;8.430;2023-03-13T09:13:03;98988.25;;;13.02;88.29
4576;BME280;2300;51.874;8.430;2023-03-13T09:15:29;98991.34;;;13.01;87.96
4576;BME280;2300;51.874;8.430;2023-03-13T09:17:57;98995.34;;;13.13;88.01
4576;BME280;2300;51.874;8.430;2023-03-13T09:20:23;98997.91;;;13.05;87.91
4576;BME280;2300;51.874;8.430;2023-03-13T09:22:50;98996.38;;;13.17;87.35
4576;BME280;2300;51.874;8.430;2023-03-13T09:25:16;98996.88;;;13.24;86.26
4576;BME280;2300;51.874;8.430;2023-03-13T09:27:43;98999.88;;;13.28;86.60
4576;BME280;2300;51.874;8.430;2023-03-13T09:30:10;98989.50;;;13.20;86.77
4576;BME280;2300;51.874;8.430;2023-03-13T09:32:37;99003.16;;;13.30;86.50
4576;BME280;2300;51.874;8.430;2023-03-13T09:35:05;98994.34;;;13.28;86.90
4576;BME280;2300;51.874;8.430;2023-03-13T09:37:32;98997.72;;;13.25;87.23
4576;BME280;2300;51.874;8.430;2023-03-13T09:39:58;99001.56;;;13.24;87.55
4576;BME280;2300;51.874;8.430;2023-03-13T09:42:33;99004.31;;;13.24;87.08
4576;BME280;2300;51.874;8.430;2023-03-13T09:45:05;99005.44;;;13.23;87.06
4576;BME280;2300;51.874;8.430;2023-03-13T09:47:37;98990.56;;;13.24;87.21
4576;BME280;2300;51.874;8.430;2023-03-13T09:50:13;98995.47;;;13.27;87.67
4576;BME280;2300;51.874;8.430;2023-03-13T09:52:42;98993.91;;;13.21;88.30
4576;BME280;2300;51.874;8.430;2023-03-13T09:55:13;98972.97;;;13.20;88.14
4576;BME280;2300;51.874;8.430;2023-03-13T09:57:48;98993.97;;;13.63;87.53
4576;BME280;2300;51.874;8.430;2023-03-13T10:00:21;98970.06;;;13.82;86.67
4576;BME280;2300;51.874;8.430;2023-03-13T10:02:54;98973.97;;;14.00;85.92
4576;BME280;2300;51.874;8.430;2023-03-13T10:05:24;98976.03;;;14.13;84.72
4576;BME280;2300;51.874;8.430;2023-03-13T10:07:55;98970.66;;;14.22;85.21
4576;BME280;2300;51.874;8.430;2023-03-13T10:10:37;98971.13;;;14.48;84.06
4576;BME280;2300;51.874;8.430;2023-03-13T10:13:13;98968.34;;;14.66;84.00
4576;BME280;2300;51.874;8.430;2023-03-13T10:15:44;98960.41;;;14.79;83.44
4576;BME280;2300;51.874;8.430;2023-03-13T10:18:16;98959.16;;;14.71;83.72
4576;BME280;2300;51.874;8.430;2023-03-13T10:20:47;98944.44;;;14.76;83.14
4576;BME280;2300;51.874;8.430;2023-03-13T10:23:18;98951.63;;;14.77;82.76
4576;BME280;2300;51.874;8.430;2023-03-13T10:25:46;98955.59;;;14.71;82.88
4576;BME280;2300;51.874;8.430;2023-03-13T10:28:14;98954.59;;;14.61;83.22
4576;BME280;2300;51.874;8.430;2023-03-13T10:30:45;98942.34;;;14.67;82.93
4576;BME280;2300;51.874;8.430;2023-03-13T10:33:21;98953.78;;;14.80;82.32
4576;BME280;2300;51.874;8.430;2023-03-13T10:36:01;98936.84;;;15.00;82.18
4576;BME280;2300;51.874;8.430;2023-03-13T10:38:32;98932.88;;;15.06;82.21
4576;BME280;2300;51.874;8.430;2023-03-13T10:41:00;98931.50;;;15.22;81.67
4576;BME280;2300;51.874;8.430;2023-03-13T10:43:29;98941.94;;;15.25;80.77
4576;BME280;2300;51.874;8.430;2023-03-13T10:45:55;98939.06;;;15.17;81.69
4576;BME280;2300;51.874;8.430;2023-03-13T10:48:24;98940.56;;;15.09;82.04
4576;BME280;2300;51.874;8.430;2023-03-13T10:50:53;98930.47;;;14.86;81.68
4576;BME280;2300;51.874;8.430;2023-03-13T10:53:30;98931.13;;;14.78;82.41
4576;BME280;2300;51.874;8.430;2023-03-13T10:56:02;98943.06;;;14.59;82.84
4576;BME280;2300;51.874;8.430;2023-03-13T10:58:33;98935.63;;;14.74;82.77
4576;BME280;2300;51.874;8.430;2023-03-13T11:01:18;98935.81;;;14.96;83.35
4576;BME280;2300;51.874;8.430;2023-03-13T11:03:47;98922.81;;;14.96;82.58
4576;BME280;2300;51.874;8.430;2023-03-13T11:06:28;98930.88;;;15.25;82.30
4576;BME280;2300;51.874;8.430;2023-03-13T11:09:07;98913.00;;;15.04;81.37
4576;BME280;2300;51.874;8.430;2023-03-13T11:11:48;98928.13;;;14.93;81.85
4576;BME280;2300;51.874;8.430;2023-03-13T11:14:17;98914.81;;;14.95;81.40
4576;BME280;2300;51.874;8.430;2023-03-13T11:16:48;98909.34;;;15.08;81.72
4576;BME280;2300;51.874;8.430;2023-03-13T11:19:29;98902.38;;;14.97;81.31
4576;BME280;2300;51.874;8.430;2023-03-13T11:24:51;98912.34;;;15.26;82.02
4576;BME280;2300;51.874;8.430;2023-03-13T11:27:27;98906.63;;;15.63;80.87
4576;BME280;2300;51.874;8.430;2023-03-13T11:30:05;98897.13;;;15.69;81.22
4576;BME280;2300;51.874;8.430;2023-03-13T11:32:40;98876.69;;;15.79;80.05
4576;BME280;2300;51.874;8.430;2023-03-13T11:35:17;98884.34;;;16.09;78.80
4576;BME280;2300;51.874;8.430;2023-03-13T11:37:45;98889.50;;;15.88;78.00
4576;BME280;2300;51.874;8.430;2023-03-13T11:40:17;98877.31;;;15.76;77.88
4576;BME280;2300;51.874;8.430;2023-03-13T11:45:49;98869.13;;;15.71;76.26
4576;BME280;2300;51.874;8.430;2023-03-13T11:48:41;98864.13;;;15.59;74.49
4576;BME280;2300;51.874;8.430;2023-03-13T11:51:16;98865.75;;;15.74;74.65
4576;BME280;2300;51.874;8.430;2023-03-13T11:53:58;98876.00;;;15.73;75.04
4576;BME280;2300;51.874;8.430;2023-03-13T11:56:31;98851.56;;;15.89;73.83
4576;BME280;2300;51.874;8.430;2023-03-13T11:59:15;98847.44;;;16.14;73.65
4576;BME280;2300;51.874;8.430;2023-03-13T12:01:48;98842.16;;;16.26;72.50
4576;BME280;2300;51.874;8.430;2023-03-13T12:04:22;98831.53;;;16.42;71.52
4576;BME280;2300;51.874;8.430;2023-03-13T12:06:53;98823.56;;;16.71;71.25
4576;BME280;2300;51.874;8.430;2023-03-13T12:09:25;98809.19;;;16.69;70.67
4576;BME280;2300;51.874;8.430;2023-03-13T12:11:58;98827.75;;;16.91;70.78
4576;BME280;2300;51.874;8.430;2023-03-13T12:14:30;98804.22;;;17.10;70.12
4576;BME280;2300;51.874;8.430;2023-03-13T12:17:00;98805.63;;;16.99;69.30
4576;BME280;2300;51.874;8.430;2023-03-13T12:19:29;98805.56;;;17.22;68.45
4576;BME280;2300;51.874;8.430;2023-03-13T12:22:02;98793.41;;;17.57;68.64
4576;BME280;2300;51.874;8.430;2023-03-13T12:24:37;98768.44;;;17.57;67.14
4576;BME280;2300;51.874;8.430;2023-03-13T12:27:11;98773.69;;;17.58;65.83
4576;BME280;2300;51.874;8.430;2023-03-13T12:29:45;98774.19;;;17.04;65.92
4576;BME280;2300;51.874;8.430;2023-03-13T12:32:18;98765.81;;;16.95;66.69
4576;BME280;2300;51.874;8.430;2023-03-13T12:34:57;98782.38;;;16.78;66.59
4576;BME280;2300;51.874;8.430;2023-03-13T12:37:29;98779.25;;;17.10;66.95
4576;BME280;2300;51.874;8.430;2023-03-13T12:40:03;98751.69;;;17.05;65.71
4576;BME280;2300;51.874;8.430;2023-03-13T12:42:41;98762.56;;;17.02;65.86
4576;BME280;2300;51.874;8.430;2023-03-13T12:45:15;98765.09;;;17.21;66.22
4576;BME280;2300;51.874;8.430;2023-03-13T12:48:19;98734.69;;;16.98;66.24
4576;BME280;2300;51.874;8.430;2023-03-13T12:51:00;98741.66;;;16.87;66.24
4576;BME280;2300;51.874;8.430;2023-03-13T12:56:39;98752.31;;;17.59;65.51
4576;BME280;2300;51.874;8.430;2023-03-13T12:59:14;98747.47;;;17.16;65.63
4576;BME280;2300;51.874;8.430;2023-03-13T13:01:43;98712.88;;;17.05;65.93
4576;BME280;2300;51.874;8.430;2023-03-13T13:04:13;98717.34;;;17.24;65.35
4576;BME280;2300;51.874;8.430;2023-03-13T13:06:55;98726.31;;;17.29;65.08
4576;BME280;2300;51.874;8.430;2023-03-13T13:09:25;98721.31;;;17.00;65.82
4576;BME280;2300;51.874;8.430;2023-03-13T13:11:53;98693.97;;;17.07;65.93
4576;BME280;2300;51.874;8.430;2023-03-13T13:14:55;98701.69;;;17.36;65.68
4576;BME280;2300;51.874;8.430;2023-03-13T13:20:49;98692.91;;;17.60;65.39
4576;BME280;2300;51.874;8.430;2023-03-13T13:23:36;98690.28;;;17.81;65.05
4576;BME280;2300;51.874;8.430;2023-03-13T13:32:31;98656.16;;;17.63;63.33
4576;BME280;2300;51.874;8.430;2023-03-13T13:35:03;98655.69;;;17.44;63.57
4576;BME280;2300;51.874;8.430;2023-03-13T13:37:32;98659.78;;;17.72;63.63
4576;BME280;2300;51.874;8.430;2023-03-13T13:40:18;98665.78;;;17.91;64.06
4576;BME280;2300;51.874;8.430;2023-03-13T13:42:47;98662.50;;;18.15;63.71
4576;BME280;2300;51.874;8.430;2023-03-13T13:45:29;98659.19;;;18.30;62.36
4576;BME280;2300;51.874;8.430;2023-03-13T13:48:28;98643.09;;;18.07;62.89
4576;BME280;2300;51.874;8.430;2023-03-13T13:51:31;98647.66;;;17.85;62.92